Time;durP1;ratioP1;P1;durP2;ratioP2;P2;SDS_P1;SDS_P2;PMS_P1;PMS_P2;Temp;Humidity;BMP_temperature;BMP_pressure;BME280_temperature;BME280_humidity;BME280_pressure;Samples;Min_cycle;Max_cycle;Signal;HPM_P1;HPM_P2
2023/01/05 17:07:24;;;;;;;38.40;8.98;;;10.20;99.90;;;;;;4936273;27;4354197;-83
2023/01/05 17:09:50;;;;;;;45.75;9.73;;;10.20;99.90;;;;;;5056721;28;20115;-84
2023/01/05 17:12:16;;;;;;;47.33;11.27;;;10.20;99.90;;;;;;5092374;28;20051;-85
2023/01/05 17:14:43;;;;;;;36.00;9.15;;;10.40;99.90;;;;;;5058183;28;20035;-85
2023/01/05 17:17:11;;;;;;;38.75;10.40;;;10.40;99.90;;;;;;5040648;28;20028;-85
2023/01/05 17:19:37;;;;;;;46.58;10.85;;;10.60;99.90;;;;;;5057595;28;20035;-86
2023/01/05 17:22:05;;;;;;;44.80;12.35;;;10.60;99.90;;;;;;5092315;28;20024;-85
2023/01/05 17:24:32;;;;;;;50.00;11.40;;;10.70;99.90;;;;;;5060356;28;20084;-85
2023/01/05 17:26:58;;;;;;;59.03;13.32;;;10.80;99.90;;;;;;5079369;28;20028;-85
2023/01/05 17:29:27;;;;;;;46.28;11.98;;;10.80;99.90;;;;;;5089785;28;20032;-84
2023/01/05 17:31:56;;;;;;;46.67;12.20;;;10.90;99.90;;;;;;5108005;28;20527;-85
2023/01/05 17:34:22;;;;;;;51.15;12.85;;;11.00;99.90;;;;;;5073226;28;20055;-85
2023/01/05 17:36:52;;;;;;;41.50;11.77;;;11.00;99.90;;;;;;5082300;28;20048;-84
2023/01/05 17:39:24;;;;;;;40.70;11.23;;;11.10;99.90;;;;;;5090872;28;20104;-86
2023/01/05 17:41:50;;;;;;;38.17;11.90;;;11.10;99.90;;;;;;5062909;28;20090;-85
2023/01/05 17:44:16;;;;;;;32.72;11.30;;;11.10;99.90;;;;;;5073539;28;20047;-85
2023/01/05 17:46:46;;;;;;;34.75;11.20;;;11.10;99.90;;;;;;5073207;28;20028;-84
2023/01/05 17:49:32;;;;;;;34.17;11.27;;;11.10;99.90;;;;;;5091189;28;20012;-86
2023/01/05 17:51:57;;;;;;;29.95;11.43;;;11.10;99.90;;;;;;5072401;28;20032;-84
2023/01/05 17:54:23;;;;;;;27.98;10.70;;;11.10;99.90;;;;;;5072251;28;20452;-84
2023/01/05 17:56:48;;;;;;;34.15;12.38;;;11.10;99.90;;;;;;5072434;28;20433;-84
2023/01/05 17:59:14;;;;;;;37.30;11.35;;;11.10;99.90;;;;;;5055711;28;20032;-85
2023/01/05 18:01:40;;;;;;;39.03;12.50;;;11.10;99.90;;;;;;5039074;28;20163;-83
2023/01/05 18:04:05;;;;;;;36.70;12.10;;;11.10;99.90;;;;;;5072389;28;20031;-84
2023/01/05 18:06:31;;;;;;;36.08;13.70;;;11.10;99.90;;;;;;5068363;28;20060;-83
2023/01/05 18:08:57;;;;;;;38.47;12.48;;;11.10;99.90;;;;;;5068401;28;20033;-83
2023/01/05 18:11:22;;;;;;;35.30;13.18;;;11.10;99.90;;;;;;5051439;28;20025;-83
2023/01/05 18:13:48;;;;;;;44.80;17.90;;;11.20;99.90;;;;;;5068411;28;20450;-84
2023/01/05 18:16:14;;;;;;;39.33;15.02;;;11.20;99.90;;;;;;5052139;28;20033;-83
2023/01/05 18:18:40;;;;;;;46.88;21.17;;;11.20;99.90;;;;;;5038863;28;20051;-84
2023/01/05 18:21:06;;;;;;;46.33;17.25;;;11.20;99.90;;;;;;5022452;28;20454;-84
2023/01/05 18:23:32;;;;;;;38.63;18.88;;;11.20;99.90;;;;;;5055167;28;20017;-84
2023/01/05 18:26:04;;;;;;;37.58;15.48;;;11.20;99.90;;;;;;5055504;28;20040;-83
2023/01/05 18:28:30;;;;;;;41.35;14.88;;;11.20;99.90;;;;;;5054842;28;20071;-84
2023/01/05 18:30:55;;;;;;;42.03;13.95;;;11.20;99.90;;;;;;5055277;28;20274;-84
2023/01/05 18:33:21;;;;;;;42.63;14.95;;;11.20;99.90;;;;;;5038414;28;20419;-84
2023/01/05 18:35:46;;;;;;;39.58;13.90;;;11.20;99.90;;;;;;5022039;28;20032;-84
2023/01/05 18:38:12;;;;;;;38.55;15.35;;;11.20;99.90;;;;;;5038662;28;20076;-85
2023/01/05 18:40:38;;;;;;;47.47;15.65;;;11.20;99.90;;;;;;5041140;28;20067;-84
2023/01/05 18:43:03;;;;;;;44.58;16.02;;;11.20;99.90;;;;;;5039326;28;20029;-84
2023/01/05 18:45:29;;;;;;;41.90;16.85;;;11.20;99.90;;;;;;5055408;28;20124;-84
2023/01/05 18:47:57;;;;;;;37.78;16.50;;;11.20;99.90;;;;;;5038555;28;20120;-82
2023/01/05 18:50:22;;;;;;;49.22;16.80;;;11.20;99.90;;;;;;5038790;28;20025;-83
2023/01/05 18:52:48;;;;;;;38.35;15.85;;;11.20;99.90;;;;;;5054958;28;20025;-82
2023/01/05 18:55:14;;;;;;;44.42;17.40;;;11.30;99.90;;;;;;5038304;28;20025;-82
2023/01/05 18:57:40;;;;;;;48.28;16.77;;;11.30;99.90;;;;;;5037871;28;20040;-81
2023/01/05 19:00:06;;;;;;;38.65;17.90;;;11.30;99.90;;;;;;5054981;28;20448;-82
2023/01/05 19:02:32;;;;;;;38.80;16.92;;;11.30;99.90;;;;;;5037869;28;20025;-82
2023/01/05 19:04:57;;;;;;;39.72;16.95;;;11.30;99.90;;;;;;5054956;28;20058;-82
2023/01/05 19:07:23;;;;;;;39.22;16.58;;;11.40;99.90;;;;;;5053135;28;20064;-82
2023/01/05 19:09:49;;;;;;;43.80;16.95;;;11.40;99.90;;;;;;5044957;28;20033;-83
2023/01/05 19:12:14;;;;;;;38.38;16.88;;;11.50;99.90;;;;;;5037745;28;20021;-83
2023/01/05 19:14:40;;;;;;;37.95;17.98;;;11.50;99.90;;;;;;5037451;28;20086;-82
2023/01/05 19:17:06;;;;;;;33.33;17.52;;;11.50;99.90;;;;;;5021242;28;20033;-83
2023/01/05 19:19:31;;;;;;;38.17;17.52;;;11.50;99.90;;;;;;5037723;28;20031;-83
2023/01/05 19:21:57;;;;;;;39.83;19.35;;;11.50;99.90;;;;;;5035672;28;20052;-84
2023/01/05 19:24:25;;;;;;;38.05;18.52;;;11.50;99.90;;;;;;5037583;28;20497;-87
2023/01/05 19:26:51;;;;;;;42.60;21.30;;;11.50;99.90;;;;;;5053371;28;20059;-85
2023/01/05 19:29:18;;;;;;;41.38;21.58;;;11.50;99.90;;;;;;5052170;28;20017;-84
2023/01/05 19:31:44;;;;;;;50.85;22.08;;;11.60;99.90;;;;;;5054049;28;20025;-83
2023/01/05 19:34:15;;;;;;;35.45;20.48;;;11.60;99.90;;;;;;5054398;28;20370;-84
2023/01/05 19:36:41;;;;;;;38.72;20.50;;;11.60;99.90;;;;;;5038289;28;20032;-85
2023/01/05 19:39:14;;;;;;;37.80;21.60;;;11.70;99.90;;;;;;5054739;28;20037;-84
2023/01/05 19:41:45;;;;;;;35.53;21.00;;;11.70;99.90;;;;;;5053994;28;20023;-85
2023/01/05 19:44:15;;;;;;;37.75;21.35;;;11.70;99.90;;;;;;5054655;28;20020;-85
2023/01/05 19:46:41;;;;;;;42.15;21.60;;;11.70;99.90;;;;;;5054138;28;20032;-83
2023/01/05 19:49:13;;;;;;;42.30;21.83;;;11.70;99.90;;;;;;5037388;28;20017;-83
2023/01/05 19:51:39;;;;;;;37.78;21.33;;;11.70;99.90;;;;;;5053807;28;20025;-84
2023/01/05 19:54:04;;;;;;;40.90;21.33;;;11.70;99.90;;;;;;5037514;28;20033;-83
2023/01/05 19:56:32;;;;;;;38.00;22.05;;;11.70;99.90;;;;;;5054571;28;20033;-83
2023/01/05 19:59:01;;;;;;;39.92;22.88;;;11.70;99.90;;;;;;5048784;28;20071;-83
2023/01/05 20:01:34;;;;;;;42.85;22.58;;;11.70;99.90;;;;;;5054599;28;20481;-82
2023/01/05 20:04:00;;;;;;;41.30;24.95;;;11.70;99.90;;;;;;5053669;28;20056;-83
2023/01/05 20:06:32;;;;;;;38.72;22.52;;;11.70;99.90;;;;;;5058554;28;20083;-84
2023/01/05 20:08:59;;;;;;;38.67;23.70;;;11.70;99.90;;;;;;5056621;28;20422;-83
2023/01/05 20:11:41;;;;;;;40.83;24.13;;;11.80;99.90;;;;;;5056565;28;20036;-83
2023/01/05 20:14:23;;;;;;;39.03;23.75;;;11.80;99.90;;;;;;5074016;28;20021;-82
2023/01/05 20:16:57;;;;;;;35.20;23.48;;;11.80;99.90;;;;;;5056050;28;20082;-83
2023/01/05 20:19:25;;;;;;;38.30;24.20;;;11.90;99.90;;;;;;5056606;28;20380;-83
2023/01/05 20:21:52;;;;;;;39.55;24.15;;;11.90;99.90;;;;;;5074323;28;20021;-83
2023/01/05 20:24:26;;;;;;;39.28;26.20;;;11.90;99.90;;;;;;5039428;28;20029;-83
2023/01/05 20:26:56;;;;;;;36.17;24.23;;;11.90;99.90;;;;;;5056137;28;20040;-83
2023/01/05 20:29:23;;;;;;;37.40;22.52;;;11.90;99.90;;;;;;5056416;28;20020;-82
2023/01/05 20:31:55;;;;;;;34.50;22.95;;;11.80;99.90;;;;;;5039856;28;20105;-83
2023/01/05 20:34:24;;;;;;;36.20;23.52;;;11.90;99.90;;;;;;5056201;28;20048;-83
2023/01/05 20:36:50;;;;;;;35.35;23.27;;;11.90;99.90;;;;;;5056692;28;20134;-82
2023/01/05 20:39:21;;;;;;;37.20;22.27;;;11.90;99.90;;;;;;5056501;28;20040;-83
2023/01/05 20:41:48;;;;;;;37.13;22.17;;;11.90;99.90;;;;;;5055949;28;20028;-84
2023/01/05 20:44:16;;;;;;;35.55;22.80;;;11.90;99.90;;;;;;5040210;28;20489;-83
2023/01/05 20:46:45;;;;;;;32.53;21.85;;;11.90;99.90;;;;;;5056389;28;20051;-84
2023/01/05 20:49:11;;;;;;;33.85;20.58;;;12.00;99.90;;;;;;5056775;28;20115;-84
2023/01/05 20:51:40;;;;;;;37.83;22.00;;;11.90;99.90;;;;;;5041273;28;20116;-84
2023/01/05 20:54:09;;;;;;;29.48;20.50;;;11.90;99.90;;;;;;5056971;28;20028;-84
2023/01/05 20:56:37;;;;;;;31.67;21.20;;;11.90;99.90;;;;;;5056601;28;20021;-85
2023/01/05 20:59:25;;;;;;;31.38;19.83;;;11.90;99.90;;;;;;5056741;28;20465;-85
2023/01/05 21:01:51;;;;;;;27.00;19.77;;;11.90;99.90;;;;;;5056927;28;20017;-84
2023/01/05 21:04:18;;;;;;;33.38;19.70;;;12.00;99.90;;;;;;5056536;28;20033;-83
2023/01/05 21:06:44;;;;;;;26.27;17.23;;;11.90;99.90;;;;;;5058738;28;20037;-84
2023/01/05 21:09:10;;;;;;;27.00;17.98;;;12.00;99.90;;;;;;5059867;28;20039;-84
2023/01/05 21:11:36;;;;;;;24.00;16.13;;;12.00;99.90;;;;;;5068391;28;20031;-87
2023/01/05 21:14:05;;;;;;;27.05;16.05;;;11.90;99.90;;;;;;5066757;28;20045;-85
2023/01/05 21:16:34;;;;;;;28.15;15.15;;;11.90;99.90;;;;;;5064839;28;20051;-85
2023/01/05 21:19:00;;;;;;;20.83;15.63;;;12.00;99.90;;;;;;5065166;28;20029;-84
2023/01/05 21:21:27;;;;;;;18.38;13.90;;;11.90;99.90;;;;;;5076506;28;20436;-84
2023/01/05 21:23:53;;;;;;;16.98;10.60;;;12.00;99.90;;;;;;5062672;28;20031;-83
2023/01/05 21:26:20;;;;;;;19.35;10.73;;;11.90;99.90;;;;;;5074634;28;20039;-84
2023/01/05 21:28:46;;;;;;;18.73;10.73;;;11.90;99.90;;;;;;5039984;28;20029;-84
2023/01/05 21:31:17;;;;;;;17.98;9.90;;;11.90;99.90;;;;;;5056230;28;20043;-83
2023/01/05 21:33:44;;;;;;;17.42;8.07;;;11.90;99.90;;;;;;5055365;28;20028;-84
2023/01/05 21:36:17;;;;;;;13.98;8.05;;;11.90;99.90;;;;;;5039295;28;20094;-83
2023/01/05 21:38:48;;;;;;;18.65;7.93;;;11.90;99.90;;;;;;5073528;28;20032;-84
2023/01/05 21:41:14;;;;;;;11.45;6.68;;;11.90;99.90;;;;;;5073671;28;20354;-84
2023/01/05 21:43:39;;;;;;;13.57;6.05;;;11.80;99.90;;;;;;5038740;28;20036;-88
2023/01/05 21:46:10;;;;;;;14.48;6.78;;;11.80;99.90;;;;;;5072929;28;20035;-84
2023/01/05 21:48:36;;;;;;;17.73;5.70;;;11.80;99.90;;;;;;5073213;28;20095;-84
2023/01/05 21:56:37;;;;;;;13.35;5.95;;;11.70;99.90;;;;;;5077092;28;20405;-84
2023/01/05 21:59:06;;;;;;;18.38;6.88;;;11.80;99.90;;;;;;5059043;28;20033;-84
2023/01/05 22:01:32;;;;;;;13.43;6.20;;;11.70;99.90;;;;;;5058810;28;20023;-84
2023/01/05 22:03:57;;;;;;;17.80;8.02;;;11.70;99.90;;;;;;5025523;28;20052;-84
2023/01/05 22:06:23;;;;;;;16.45;7.15;;;11.70;99.90;;;;;;5058283;28;20137;-84
2023/01/05 22:08:49;;;;;;;14.43;7.00;;;11.70;99.90;;;;;;5058672;28;20033;-84
2023/01/05 22:11:14;;;;;;;13.30;6.65;;;11.70;99.90;;;;;;5058558;28;20029;-84
2023/01/05 22:13:40;;;;;;;13.45;6.47;;;11.70;99.90;;;;;;5042173;28;20028;-84
2023/01/05 22:16:07;;;;;;;14.35;6.45;;;11.70;99.90;;;;;;5058538;28;20488;-83
2023/01/05 22:18:33;;;;;;;13.85;6.18;;;11.70;99.90;;;;;;5076253;28;20472;-83
2023/01/05 22:21:01;;;;;;;11.85;5.13;;;11.70;99.90;;;;;;5058304;28;20017;-84
2023/01/05 22:23:28;;;;;;;10.15;5.18;;;11.70;99.90;;;;;;5058674;28;20025;-83
2023/01/05 22:26:05;;;;;;;13.13;5.50;;;11.70;99.90;;;;;;5059203;28;20052;-83
2023/01/05 22:28:34;;;;;;;10.43;3.53;;;11.70;99.90;;;;;;5076259;28;20111;-83
2023/01/05 22:31:04;;;;;;;12.05;4.10;;;11.70;99.90;;;;;;5059113;28;20020;-83
2023/01/05 22:33:31;;;;;;;14.10;4.53;;;11.70;99.90;;;;;;5058525;28;20036;-83
2023/01/05 22:35:58;;;;;;;14.35;4.05;;;11.70;99.90;;;;;;5058038;28;20539;-83
2023/01/05 22:38:25;;;;;;;10.13;4.63;;;11.70;99.90;;;;;;5042233;28;20028;-83
2023/01/05 22:40:58;;;;;;;8.43;4.35;;;11.70;99.90;;;;;;5042396;28;20440;-82
2023/01/05 22:43:25;;;;;;;9.82;4.57;;;11.70;99.90;;;;;;5058917;28;20021;-83
2023/01/05 22:45:51;;;;;;;9.73;4.57;;;11.70;99.90;;;;;;5058037;28;20040;-83
2023/01/05 22:48:17;;;;;;;11.20;4.32;;;11.70;99.90;;;;;;5076399;28;20032;-84
2023/01/05 22:50:44;;;;;;;10.18;4.00;;;11.70;99.90;;;;;;5058268;28;20024;-83
2023/01/05 22:53:10;;;;;;;9.48;3.90;;;11.70;99.90;;;;;;5041066;28;20082;-83
2023/01/05 22:55:35;;;;;;;9.27;3.47;;;11.80;99.90;;;;;;5041522;28;20028;-83
2023/01/05 22:58:01;;;;;;;8.90;3.53;;;11.80;99.90;;;;;;5041032;28;20090;-83
2023/01/05 23:00:27;;;;;;;10.25;3.38;;;11.80;99.90;;;;;;5058374;28;20028;-83
2023/01/05 23:02:53;;;;;;;10.40;3.85;;;11.80;99.90;;;;;;5058329;28;20096;-81
2023/01/05 23:05:19;;;;;;;8.15;3.50;;;11.70;99.90;;;;;;5058396;28;20029;-82
2023/01/05 23:07:45;;;;;;;9.35;3.58;;;11.70;99.90;;;;;;5054373;28;20049;-82
2023/01/05 23:10:11;;;;;;;11.85;3.60;;;11.70;99.90;;;;;;5054464;28;20060;-82
2023/01/05 23:12:36;;;;;;;10.05;3.47;;;11.80;99.90;;;;;;5055559;28;20051;-84
2023/01/05 23:15:03;;;;;;;7.28;3.70;;;11.80;99.90;;;;;;5054109;28;20032;-84
2023/01/05 23:17:29;;;;;;;10.32;3.92;;;11.80;99.90;;;;;;5054322;28;20029;-84
2023/01/05 23:19:55;;;;;;;9.63;4.15;;;11.80;99.90;;;;;;5020779;28;20473;-83
2023/01/05 23:22:20;;;;;;;11.27;4.22;;;11.80;99.90;;;;;;5037606;28;20031;-83
2023/01/05 23:24:46;;;;;;;10.68;4.53;;;11.80;99.90;;;;;;5020753;28;20064;-84
2023/01/05 23:27:12;;;;;;;10.90;3.70;;;11.80;99.90;;;;;;5054037;28;20037;-83
2023/01/05 23:29:37;;;;;;;12.00;4.30;;;11.80;99.90;;;;;;5037173;28;20021;-83
2023/01/05 23:32:04;;;;;;;6.63;3.20;;;11.80;99.90;;;;;;5053186;28;20029;-83
2023/01/05 23:34:30;;;;;;;8.57;3.60;;;11.80;99.90;;;;;;5037067;28;20120;-83
2023/01/05 23:36:56;;;;;;;9.27;4.13;;;11.80;99.90;;;;;;5036944;28;20127;-83
2023/01/05 23:39:22;;;;;;;8.60;3.63;;;11.80;99.90;;;;;;5020566;28;20071;-83
2023/01/05 23:41:47;;;;;;;9.18;3.67;;;11.80;99.90;;;;;;5037053;28;20414;-82
2023/01/05 23:44:13;;;;;;;8.05;3.47;;;11.80;99.90;;;;;;5036883;28;20481;-82
2023/01/05 23:46:40;;;;;;;8.75;3.05;;;11.80;99.90;;;;;;5036922;28;20559;-83
2023/01/05 23:49:06;;;;;;;10.43;3.92;;;11.80;99.90;;;;;;5053264;28;20021;-82
2023/01/05 23:51:32;;;;;;;5.30;2.80;;;11.80;99.90;;;;;;5037024;28;20071;-82
2023/01/05 23:53:58;;;;;;;10.25;3.22;;;11.80;99.90;;;;;;5053245;28;20025;-83
2023/01/05 23:56:27;;;;;;;11.80;3.08;;;11.70;99.90;;;;;;5053604;28;20025;-83
2023/01/05 23:59:03;;;;;;;8.00;3.35;;;11.70;99.90;;;;;;5052961;28;20021;-82
